createdAt,value
2018-07-24T00:00:06.596Z,19.83
2018-07-24T00:02:35.650Z,20.13
2018-07-24T00:05:04.771Z,19.03
2018-07-24T00:07:33.675Z,19.80
2018-07-24T00:10:03.654Z,20.90
2018-07-24T00:12:32.853Z,21.53
2018-07-24T00:15:01.843Z,20.47
2018-07-24T00:17:30.827Z,22.17
2018-07-24T00:19:59.894Z,23.43
2018-07-24T00:22:28.831Z,24.63
2018-07-24T00:24:57.830Z,26.40
2018-07-24T00:27:26.770Z,22.23
2018-07-24T00:29:55.753Z,20.80
2018-07-24T00:32:24.833Z,23.13
2018-07-24T00:34:53.810Z,24.70
2018-07-24T00:37:22.794Z,20.70
2018-07-24T00:39:51.784Z,20.40
2018-07-24T00:42:20.689Z,20.90
2018-07-24T00:44:49.614Z,20.60
2018-07-24T00:47:18.557Z,21.07
2018-07-24T00:49:47.487Z,20.47
2018-07-24T00:52:16.502Z,21.03
2018-07-24T00:54:45.554Z,21.53
2018-07-24T00:57:14.628Z,21.00
2018-07-24T00:59:43.593Z,19.57
2018-07-24T01:02:12.651Z,22.47
2018-07-24T01:04:41.854Z,20.47
2018-07-24T01:07:10.835Z,17.97
2018-07-24T01:09:39.851Z,21.93
2018-07-24T01:12:08.831Z,19.37
2018-07-24T01:14:37.752Z,21.07
2018-07-24T01:17:06.820Z,21.13
2018-07-24T01:19:35.929Z,25.80
2018-07-24T01:22:05.016Z,21.97
2018-07-24T01:24:34.051Z,21.90
2018-07-24T01:27:02.495Z,18.40
2018-07-24T01:29:31.469Z,19.10
2018-07-24T01:32:00.670Z,22.63
2018-07-24T01:34:29.683Z,20.83
2018-07-24T01:36:58.667Z,18.70
2018-07-24T01:39:27.507Z,23.30
2018-07-24T01:41:56.491Z,21.80
2018-07-24T01:44:25.435Z,19.27
2018-07-24T01:46:54.495Z,17.60
2018-07-24T01:49:23.431Z,22.03
2018-07-24T01:51:52.316Z,20.17
2018-07-24T01:54:21.337Z,23.50
2018-07-24T01:56:50.341Z,21.93
2018-07-24T01:59:19.408Z,19.40
2018-07-24T02:01:48.392Z,18.23
2018-07-24T02:04:17.335Z,19.20
2018-07-24T02:06:46.331Z,20.50
2018-07-24T02:09:15.331Z,17.27
2018-07-24T02:11:44.394Z,19.30
2018-07-24T02:14:13.394Z,17.00
2018-07-24T02:16:42.736Z,18.97
2018-07-24T02:19:11.862Z,16.53
2018-07-24T02:21:40.851Z,16.93
2018-07-24T02:24:09.889Z,16.70
2018-07-24T02:26:38.483Z,17.70
2018-07-24T02:29:07.397Z,18.37
2018-07-24T02:31:36.367Z,16.00
2018-07-24T02:34:05.411Z,19.20
2018-07-24T02:36:34.492Z,16.10
2018-07-24T02:39:03.515Z,16.60
2018-07-24T02:41:32.538Z,18.40
2018-07-24T02:44:02.800Z,18.37
2018-07-24T02:46:32.014Z,17.67
2018-07-24T02:49:01.013Z,18.00
2018-07-24T02:51:30.079Z,22.50
2018-07-24T02:53:59.092Z,20.50
2018-07-24T02:56:28.733Z,16.77
2018-07-24T02:58:57.955Z,16.53
2018-07-24T03:01:27.271Z,16.73
2018-07-24T03:03:56.365Z,17.90
2018-07-24T03:06:25.571Z,18.60
2018-07-24T03:08:54.565Z,19.97
2018-07-24T03:11:23.517Z,17.13
2018-07-24T03:13:52.035Z,16.63
2018-07-24T03:16:21.140Z,18.07
2018-07-24T03:18:50.063Z,15.27
2018-07-24T03:21:19.036Z,17.67
2018-07-24T03:23:48.228Z,16.97
2018-07-24T03:26:17.421Z,18.87
2018-07-24T03:28:46.449Z,17.57
2018-07-24T03:31:15.412Z,15.67
2018-07-24T03:33:44.411Z,16.50
2018-07-24T03:36:13.392Z,15.93
2018-07-24T03:38:42.233Z,20.47
2018-07-24T03:41:11.211Z,16.83
2018-07-24T03:43:40.191Z,18.67
2018-07-24T03:46:09.182Z,14.77
2018-07-24T03:48:38.211Z,16.43
2018-07-24T03:51:07.215Z,17.70
2018-07-24T03:53:35.725Z,16.97
2018-07-24T03:56:04.675Z,17.63
2018-07-24T03:58:33.671Z,15.27
2018-07-24T04:01:03.146Z,16.47
2018-07-24T04:03:32.157Z,17.30
2018-07-24T04:06:01.097Z,16.63
2018-07-24T04:08:30.136Z,15.63
2018-07-24T04:10:59.075Z,17.27
2018-07-24T04:13:28.169Z,19.73
2018-07-24T04:15:57.155Z,16.93
2018-07-24T04:18:26.147Z,17.33
2018-07-24T04:20:55.158Z,20.23
2018-07-24T04:23:24.071Z,14.90
2018-07-24T04:25:52.979Z,18.10
2018-07-24T04:28:21.939Z,16.50
2018-07-24T04:30:51.048Z,16.53
2018-07-24T04:33:20.013Z,16.63
2018-07-24T04:35:49.054Z,15.20
2018-07-24T04:38:18.034Z,14.80
2018-07-24T04:40:47.031Z,16.90
2018-07-24T04:43:16.877Z,13.53
2018-07-24T04:45:45.804Z,16.00
2018-07-24T04:48:14.833Z,15.27
2018-07-24T04:50:45.135Z,16.13
2018-07-24T04:53:14.094Z,13.73
2018-07-24T04:55:42.598Z,14.37
2018-07-24T04:58:11.613Z,14.57
2018-07-24T05:00:40.649Z,14.40
2018-07-24T05:03:09.620Z,13.10
2018-07-24T05:05:38.635Z,13.63
2018-07-24T05:08:07.793Z,13.60
2018-07-24T05:10:36.787Z,15.53
2018-07-24T05:13:05.770Z,13.03
2018-07-24T05:15:34.793Z,13.37
2018-07-24T05:18:03.720Z,13.57
2018-07-24T05:20:32.648Z,13.73
2018-07-24T05:23:01.714Z,13.40
2018-07-24T05:25:30.670Z,13.83
2018-07-24T05:27:59.648Z,14.50
2018-07-24T05:30:28.611Z,13.23
2018-07-24T05:32:57.572Z,14.10
2018-07-24T05:35:26.153Z,13.30
2018-07-24T05:37:54.622Z,12.10
2018-07-24T05:40:23.631Z,15.23
2018-07-24T05:42:52.851Z,12.87
2018-07-24T05:45:22.014Z,13.77
2018-07-24T05:47:51.184Z,15.23
2018-07-24T05:50:20.076Z,13.27
2018-07-24T05:52:49.130Z,12.43
2018-07-24T05:55:18.116Z,12.57
2018-07-24T05:57:47.067Z,12.27
2018-07-24T06:00:16.050Z,11.90
2018-07-24T06:02:45.113Z,15.07
2018-07-24T06:05:14.128Z,11.73
2018-07-24T06:07:43.132Z,12.67
2018-07-24T06:10:11.785Z,12.43
2018-07-24T06:12:40.739Z,11.83
2018-07-24T06:15:10.096Z,10.97
2018-07-24T06:17:39.050Z,10.77
2018-07-24T06:20:08.214Z,12.13
2018-07-24T06:22:37.217Z,10.83
2018-07-24T06:25:06.209Z,10.67
2018-07-24T06:27:35.259Z,11.03
2018-07-24T06:30:05.455Z,10.40
2018-07-24T06:32:34.395Z,10.63
2018-07-24T06:35:03.456Z,11.13
2018-07-24T06:37:32.564Z,13.07
2018-07-24T06:40:01.642Z,11.03
2018-07-24T06:42:30.633Z,10.67
2018-07-24T06:45:00.730Z,11.10
2018-07-24T06:47:29.711Z,10.57
2018-07-24T06:49:58.693Z,10.60
2018-07-24T06:52:27.683Z,10.30
2018-07-24T06:54:56.730Z,12.13
2018-07-24T06:57:25.670Z,11.83
2018-07-24T06:59:54.690Z,10.43
2018-07-24T07:02:23.813Z,11.97
2018-07-24T07:04:52.839Z,10.43
2018-07-24T07:07:21.895Z,14.93
2018-07-24T07:09:50.931Z,10.67
2018-07-24T07:12:19.938Z,10.43
2018-07-24T07:14:48.993Z,10.27
2018-07-24T07:17:18.072Z,10.13
2018-07-24T07:19:47.013Z,10.57
2018-07-24T07:22:16.134Z,9.47
2018-07-24T07:24:45.211Z,10.73
2018-07-24T07:27:14.301Z,10.63
2018-07-24T07:29:43.378Z,10.33
2018-07-24T07:32:12.385Z,10.43
2018-07-24T07:34:42.873Z,9.27
2018-07-24T07:37:12.029Z,12.63
2018-07-24T07:39:41.119Z,10.10
2018-07-24T07:42:10.293Z,10.30
2018-07-24T07:44:39.275Z,11.30
2018-07-24T07:47:08.371Z,10.93
2018-07-24T07:49:37.389Z,10.27
2018-07-24T07:52:06.490Z,10.00
2018-07-24T07:54:35.035Z,10.23
2018-07-24T07:57:03.951Z,10.17
2018-07-24T07:59:32.978Z,8.97
2018-07-24T08:02:02.034Z,11.00
2018-07-24T08:04:31.102Z,9.57
2018-07-24T08:07:00.099Z,13.27
2018-07-24T08:09:29.110Z,8.60
2018-07-24T08:11:58.155Z,11.30
2018-07-24T08:14:27.304Z,10.03
2018-07-24T08:16:56.510Z,9.13
2018-07-24T08:19:25.626Z,8.80
2018-07-24T08:21:54.582Z,8.80
2018-07-24T08:24:23.611Z,8.57
2018-07-24T08:26:52.708Z,9.93
2018-07-24T08:29:22.032Z,8.77
2018-07-24T08:31:51.155Z,9.30
2018-07-24T08:34:20.312Z,9.07
2018-07-24T08:36:49.391Z,9.30
2018-07-24T08:39:18.514Z,8.90
2018-07-24T08:41:47.517Z,9.90
2018-07-24T08:44:16.590Z,8.37
2018-07-24T08:46:45.610Z,8.07
2018-07-24T08:49:14.834Z,10.30
2018-07-24T08:51:43.830Z,9.47
2018-07-24T08:54:13.023Z,8.27
2018-07-24T08:56:41.991Z,8.00
2018-07-24T08:59:11.134Z,8.67
2018-07-24T09:01:40.143Z,9.23
2018-07-24T09:04:09.214Z,9.67
2018-07-24T09:06:38.302Z,8.90
2018-07-24T09:09:09.915Z,9.00
2018-07-24T09:11:38.991Z,8.77
2018-07-24T09:14:08.071Z,8.97
2018-07-24T09:16:37.555Z,8.83
2018-07-24T09:19:06.576Z,9.10
2018-07-24T09:21:35.591Z,8.73
2018-07-24T09:24:04.588Z,8.87
2018-07-24T09:26:33.678Z,8.63
2018-07-24T09:29:02.719Z,8.90
2018-07-24T09:31:31.751Z,8.83
2018-07-24T09:34:00.341Z,8.33
2018-07-24T09:36:29.363Z,9.23
2018-07-24T09:38:58.385Z,9.60
2018-07-24T09:41:27.490Z,10.07
2018-07-24T09:43:56.618Z,8.43
2018-07-24T09:46:25.605Z,8.50
2018-07-24T09:48:54.611Z,10.77
2018-07-24T09:51:23.870Z,8.67
2018-07-24T09:53:52.952Z,9.93
2018-07-24T09:56:22.147Z,10.10
2018-07-24T09:58:51.214Z,8.50
2018-07-24T10:01:25.024Z,9.23
2018-07-24T10:03:54.071Z,7.57
2018-07-24T10:06:23.151Z,7.83
2018-07-24T10:08:52.188Z,7.20
2018-07-24T10:11:21.169Z,6.70
2018-07-24T10:13:50.145Z,7.00
2018-07-24T10:16:19.250Z,6.43
2018-07-24T10:18:48.280Z,6.60
2018-07-24T10:21:17.387Z,6.40
2018-07-24T10:23:46.431Z,6.40
2018-07-24T10:26:15.349Z,8.53
2018-07-24T10:28:44.427Z,8.13
2018-07-24T10:31:13.539Z,6.47
2018-07-24T10:33:42.727Z,8.37
2018-07-24T10:36:11.797Z,6.37
2018-07-24T10:38:40.818Z,6.57
2018-07-24T10:41:09.816Z,6.67
2018-07-24T10:43:39.002Z,7.60
2018-07-24T10:46:08.081Z,9.07
2018-07-24T10:48:37.208Z,8.23
2018-07-24T10:51:06.123Z,8.73
2018-07-24T10:53:35.150Z,7.57
2018-07-24T10:56:04.209Z,7.73
2018-07-24T10:58:32.838Z,7.63
2018-07-24T11:01:01.875Z,7.43
2018-07-24T11:03:30.858Z,7.40
2018-07-24T11:05:59.915Z,7.33
2018-07-24T11:08:28.937Z,6.73
2018-07-24T11:10:57.960Z,6.27
2018-07-24T11:13:26.985Z,7.07
2018-07-24T11:15:56.130Z,7.53
2018-07-24T11:18:25.152Z,6.87
2018-07-24T11:20:54.198Z,7.80
2018-07-24T11:23:23.180Z,7.87
2018-07-24T11:25:52.178Z,8.07
2018-07-24T11:28:21.262Z,7.00
2018-07-24T11:30:50.348Z,7.13
2018-07-24T11:33:19.557Z,8.50
2018-07-24T11:35:48.179Z,9.40
2018-07-24T11:38:17.212Z,7.87
2018-07-24T11:40:46.196Z,7.30
2018-07-24T11:43:15.181Z,6.53
2018-07-24T11:45:44.251Z,7.43
2018-07-24T11:48:13.317Z,7.40
2018-07-24T11:50:42.834Z,7.20
2018-07-24T11:53:11.916Z,7.17
2018-07-24T11:55:40.914Z,7.33
2018-07-24T11:58:09.992Z,6.67
2018-07-24T12:00:39.020Z,7.20
2018-07-24T12:03:08.139Z,6.43
2018-07-24T12:05:37.214Z,8.33
2018-07-24T12:08:06.345Z,6.43
2018-07-24T12:10:35.331Z,6.50
2018-07-24T12:13:04.472Z,6.63
2018-07-24T12:15:33.482Z,6.80
2018-07-24T12:18:02.473Z,9.50
2018-07-24T12:20:31.571Z,6.60
2018-07-24T12:23:00.656Z,6.73
2018-07-24T12:25:30.032Z,9.60
2018-07-24T12:27:59.075Z,6.27
2018-07-24T12:30:28.071Z,8.93
2018-07-24T12:32:57.067Z,8.35
2018-07-24T12:35:26.138Z,6.72
2018-07-24T12:37:55.088Z,7.08
2018-07-24T12:40:24.259Z,8.28
2018-07-24T12:42:53.642Z,6.00
2018-07-24T12:45:22.621Z,5.85
2018-07-24T12:47:51.696Z,5.50
2018-07-24T12:50:20.802Z,5.58
2018-07-24T12:52:50.783Z,5.47
2018-07-24T12:55:19.806Z,7.05
2018-07-24T12:57:48.897Z,4.78
2018-07-24T13:00:18.014Z,7.28
2018-07-24T13:02:47.046Z,5.87
2018-07-24T13:05:16.281Z,5.08
2018-07-24T13:07:45.411Z,5.25
2018-07-24T13:10:20.810Z,4.67
2018-07-24T13:12:49.861Z,5.53
2018-07-24T13:15:18.875Z,4.55
2018-07-24T13:17:47.883Z,4.67
2018-07-24T13:20:17.038Z,5.30
2018-07-24T13:22:46.218Z,6.67
2018-07-24T13:25:15.326Z,4.15
2018-07-24T13:27:44.383Z,4.60
2018-07-24T13:30:13.458Z,5.60
2018-07-24T13:32:42.647Z,4.78
2018-07-24T13:35:11.802Z,6.25
2018-07-24T13:37:40.883Z,4.87
2018-07-24T13:40:09.860Z,4.42
2018-07-24T13:42:38.901Z,5.95
2018-07-24T13:45:08.012Z,5.22
2018-07-24T13:47:37.046Z,6.33
2018-07-24T13:50:06.211Z,5.90
2018-07-24T13:52:35.263Z,4.35
2018-07-24T13:55:04.387Z,5.67
2018-07-24T13:57:33.501Z,5.55
2018-07-24T14:00:02.448Z,4.12
2018-07-24T14:02:31.593Z,3.70
2018-07-24T14:05:00.542Z,4.37
2018-07-24T14:07:30.412Z,3.30
2018-07-24T14:09:59.508Z,4.67
2018-07-24T14:12:28.606Z,4.33
2018-07-24T14:14:57.618Z,4.65
2018-07-24T14:17:26.763Z,3.83
2018-07-24T14:19:55.895Z,5.55
2018-07-24T14:22:25.066Z,5.70
2018-07-24T14:24:54.105Z,4.53
2018-07-24T14:27:23.149Z,5.30
2018-07-24T14:29:52.245Z,4.72
2018-07-24T14:32:22.181Z,4.20
2018-07-24T14:34:51.246Z,4.08
2018-07-24T14:37:20.338Z,4.00
2018-07-24T14:39:49.360Z,4.58
2018-07-24T14:42:18.460Z,4.67
2018-07-24T14:44:47.515Z,3.95
2018-07-24T14:47:16.559Z,3.52
2018-07-24T14:49:45.552Z,3.55
2018-07-24T14:52:14.565Z,4.60
2018-07-24T14:54:43.668Z,3.72
2018-07-24T14:57:12.622Z,3.92
2018-07-24T14:59:41.545Z,5.92
2018-07-24T15:02:10.671Z,6.35
2018-07-24T15:04:39.688Z,4.97
2018-07-24T15:07:08.646Z,4.42
2018-07-24T15:09:37.635Z,4.05
2018-07-24T15:12:06.947Z,4.55
2018-07-24T15:14:35.949Z,4.42
2018-07-24T15:17:04.692Z,5.12
2018-07-24T15:19:33.375Z,4.35
2018-07-24T15:22:02.009Z,4.20
2018-07-24T15:24:33.805Z,3.47
2018-07-24T15:27:02.556Z,5.35
2018-07-24T15:29:31.221Z,4.30
2018-07-24T15:31:59.893Z,5.42
2018-07-24T15:34:28.703Z,4.65
2018-07-24T15:36:57.332Z,5.20
2018-07-24T15:39:25.958Z,4.05
2018-07-24T15:41:54.707Z,3.60
2018-07-24T15:44:23.459Z,4.12
2018-07-24T15:46:51.813Z,6.08
2018-07-24T15:49:20.477Z,4.25
2018-07-24T15:51:49.704Z,4.05
2018-07-24T15:54:18.822Z,3.40
2018-07-24T15:56:59.123Z,4.40
2018-07-24T15:59:27.873Z,4.12
2018-07-24T16:01:56.475Z,4.42
2018-07-24T16:04:26.696Z,4.95
2018-07-24T16:06:55.690Z,7.70
2018-07-24T16:09:24.496Z,6.03
2018-07-24T16:11:53.700Z,6.70
2018-07-24T16:14:29.335Z,7.83
2018-07-24T16:16:58.972Z,9.53
2018-07-24T16:19:28.284Z,8.90
2018-07-24T16:21:57.406Z,5.92
2018-07-24T16:24:26.592Z,4.58
2018-07-24T16:26:55.766Z,4.87
2018-07-24T16:29:25.035Z,5.95
2018-07-24T16:31:54.107Z,6.83
2018-07-24T16:34:22.882Z,8.15
2018-07-24T16:36:51.983Z,8.30
2018-07-24T16:39:21.169Z,4.93
2018-07-24T16:41:50.265Z,11.63
2018-07-24T16:44:19.532Z,5.47
2018-07-24T16:46:48.699Z,12.60
2018-07-24T16:49:17.891Z,6.93
2018-07-24T16:51:47.035Z,6.50
2018-07-24T16:54:16.232Z,8.77
2018-07-24T16:56:45.475Z,6.47
2018-07-24T16:59:15.300Z,8.70
2018-07-24T17:01:44.600Z,4.93
2018-07-24T17:04:13.751Z,8.87
2018-07-24T17:06:42.986Z,7.33
2018-07-24T17:09:13.072Z,6.77
2018-07-24T17:11:42.363Z,12.03
2018-07-24T17:14:11.612Z,7.33
2018-07-24T17:16:40.760Z,6.43
2018-07-24T17:19:10.059Z,8.40
2018-07-24T17:21:39.306Z,7.17
2018-07-24T17:24:08.525Z,9.17
2018-07-24T17:26:37.747Z,6.47
2018-07-24T17:29:07.430Z,5.57
2018-07-24T17:31:36.611Z,7.80
2018-07-24T17:34:05.791Z,7.17
2018-07-24T17:36:34.907Z,7.70
2018-07-24T17:39:04.186Z,6.57
2018-07-24T17:41:33.352Z,9.17
2018-07-24T17:44:02.535Z,5.73
2018-07-24T17:46:31.751Z,12.20
2018-07-24T17:49:00.978Z,8.63
2018-07-24T17:51:30.130Z,7.67
2018-07-24T17:53:59.332Z,8.77
2018-07-24T17:56:28.514Z,7.87
2018-07-24T17:58:57.645Z,10.23
2018-07-24T18:01:26.870Z,9.67
2018-07-24T18:03:56.084Z,7.30
2018-07-24T18:06:25.230Z,13.33
2018-07-24T18:08:54.429Z,8.73
2018-07-24T18:11:23.615Z,7.03
2018-07-24T18:13:52.822Z,6.33
2018-07-24T18:16:22.032Z,9.70
2018-07-24T18:18:51.231Z,6.87
2018-07-24T18:21:20.449Z,9.73
2018-07-24T18:23:49.774Z,8.53
2018-07-24T18:26:19.048Z,7.43
2018-07-24T18:28:48.191Z,8.90
2018-07-24T18:31:17.435Z,7.63
2018-07-24T18:33:46.682Z,8.67
2018-07-24T18:36:15.888Z,8.33
2018-07-24T18:38:45.148Z,9.03
2018-07-24T18:41:14.326Z,8.50
2018-07-24T18:43:43.631Z,13.13
2018-07-24T18:46:12.779Z,9.40
2018-07-24T18:48:41.987Z,7.27
2018-07-24T18:51:11.132Z,11.43
2018-07-24T18:53:40.310Z,8.13
2018-07-24T18:56:09.531Z,8.13
2018-07-24T18:58:38.698Z,8.00
2018-07-24T19:01:07.887Z,11.10
2018-07-24T19:03:37.055Z,7.43
2018-07-24T19:06:06.223Z,7.67
2018-07-24T19:08:35.492Z,8.53
2018-07-24T19:11:04.646Z,8.73
2018-07-24T19:13:33.876Z,7.70
2018-07-24T19:16:03.036Z,8.07
2018-07-24T19:18:32.212Z,7.63
2018-07-24T19:21:01.411Z,8.77
2018-07-24T19:23:30.619Z,12.83
2018-07-24T19:25:59.751Z,8.17
2018-07-24T19:28:28.826Z,8.93
2018-07-24T19:30:58.206Z,8.83
2018-07-24T19:33:27.450Z,9.37
2018-07-24T19:35:56.663Z,7.73
2018-07-24T19:38:25.892Z,11.37
2018-07-24T19:40:55.144Z,9.07
2018-07-24T19:43:24.623Z,10.10
2018-07-24T19:45:53.752Z,11.47
2018-07-24T19:48:22.890Z,7.57
2018-07-24T19:50:52.024Z,10.87
2018-07-24T19:53:21.214Z,8.70
2018-07-24T19:55:50.317Z,7.63
2018-07-24T19:58:19.512Z,11.07
2018-07-24T20:00:48.689Z,11.67
2018-07-24T20:03:17.865Z,8.63
2018-07-24T20:05:46.951Z,11.10
2018-07-24T20:08:16.212Z,8.20
2018-07-24T20:10:45.412Z,8.73
2018-07-24T20:13:14.645Z,7.40
2018-07-24T20:15:43.795Z,7.17
2018-07-24T20:18:12.962Z,8.73
2018-07-24T20:20:42.241Z,7.63
2018-07-24T20:23:11.682Z,9.87
2018-07-24T20:25:40.769Z,10.83
2018-07-24T20:28:10.032Z,9.80
2018-07-24T20:30:39.299Z,9.30
2018-07-24T20:33:08.414Z,7.70
2018-07-24T20:35:37.557Z,7.90
2018-07-24T20:38:06.768Z,9.50
2018-07-24T20:40:35.913Z,12.43
2018-07-24T20:43:05.076Z,10.47
2018-07-24T20:45:34.329Z,16.40
2018-07-24T20:48:03.560Z,9.73
2018-07-24T20:50:32.691Z,14.17
2018-07-24T20:53:01.906Z,9.60
2018-07-24T20:55:31.105Z,14.27
2018-07-24T20:58:00.263Z,11.93
2018-07-24T21:00:29.556Z,11.33
2018-07-24T21:02:58.732Z,9.73
2018-07-24T21:05:27.952Z,14.97
2018-07-24T21:07:57.436Z,10.87
2018-07-24T21:10:26.592Z,8.97
2018-07-24T21:13:02.301Z,7.90
2018-07-24T21:15:31.404Z,7.83
2018-07-24T21:18:00.581Z,12.03
2018-07-24T21:20:29.845Z,8.00
2018-07-24T21:22:58.571Z,6.80
2018-07-24T21:25:27.723Z,6.67
2018-07-24T21:27:56.962Z,8.70
2018-07-24T21:30:26.150Z,7.97
2018-07-24T21:32:55.301Z,7.23
2018-07-24T21:35:24.432Z,7.53
2018-07-24T21:37:53.592Z,8.93
2018-07-24T21:40:22.730Z,7.00
2018-07-24T21:42:51.994Z,9.43
2018-07-24T21:45:22.270Z,12.70
2018-07-24T21:47:51.391Z,9.50
2018-07-24T21:50:20.657Z,11.13
2018-07-24T21:52:49.857Z,6.13
2018-07-24T21:55:19.066Z,7.73
2018-07-24T21:57:48.150Z,9.47
2018-07-24T22:00:17.396Z,8.70
2018-07-24T22:02:46.525Z,9.27
2018-07-24T22:05:15.743Z,7.87
2018-07-24T22:07:44.897Z,7.33
2018-07-24T22:10:19.171Z,7.37
2018-07-24T22:12:48.328Z,8.30
2018-07-24T22:15:23.689Z,10.47
2018-07-24T22:17:53.219Z,6.27
2018-07-24T22:20:22.853Z,7.47
2018-07-24T22:22:52.532Z,9.17
2018-07-24T22:25:21.716Z,6.20
2018-07-24T22:27:50.912Z,7.77
2018-07-24T22:30:20.092Z,6.77
2018-07-24T22:32:49.311Z,7.17
2018-07-24T22:35:18.506Z,6.77
2018-07-24T22:37:47.754Z,12.20
2018-07-24T22:40:16.891Z,9.40
2018-07-24T22:42:46.048Z,7.10
2018-07-24T22:45:15.209Z,6.13
2018-07-24T22:47:44.415Z,8.40
2018-07-24T22:50:13.640Z,9.73
2018-07-24T22:52:42.763Z,14.77
2018-07-24T22:55:11.900Z,7.27
2018-07-24T22:57:41.069Z,8.67
2018-07-24T23:00:09.975Z,11.07
2018-07-24T23:02:39.225Z,11.30
2018-07-24T23:05:08.412Z,8.43
2018-07-24T23:07:37.672Z,7.27
2018-07-24T23:10:06.892Z,8.73
2018-07-24T23:12:36.073Z,10.93
2018-07-24T23:15:05.533Z,7.23
2018-07-24T23:17:34.721Z,8.27
2018-07-24T23:20:03.869Z,10.33
2018-07-24T23:22:33.112Z,8.00
2018-07-24T23:25:02.371Z,12.00
2018-07-24T23:27:31.523Z,8.90
2018-07-24T23:30:00.752Z,10.03
2018-07-24T23:32:29.964Z,10.63
2018-07-24T23:34:59.127Z,10.60
2018-07-24T23:37:28.214Z,10.63
2018-07-24T23:39:57.313Z,8.57
2018-07-24T23:42:26.431Z,8.50
2018-07-24T23:44:55.528Z,8.53
2018-07-24T23:47:24.737Z,12.83
2018-07-24T23:49:53.892Z,8.07
2018-07-24T23:52:23.007Z,10.33
2018-07-24T23:54:52.145Z,10.93
2018-07-24T23:57:21.233Z,10.10
2018-07-24T23:59:50.488Z,13.03
